Latest Weather Observations for Cleve Airport

IDS60801

Issued at 11:05 pm CDT Thursday 23 October 2014 (issued every 30 minutes, with the page automatically refreshed every 10 minutes)

About weather observations | Map of weather stations | Latest weather observations for SA | Other Formats
Station Details ID: 018116 Name: CLEVE AERODROME Lat: -33.71 Lon: 136.50 Height: 175.0 m
Data from the previous 72 hours. | See also: Recent months at Cleve Airport
Date/Time
CDT
Temp
°C
App
Temp
°C
Dew
Point
Rel
Hum
%
Delta-T
°C
Wind Press
QNH
hPa
Press
MSL
hPa
Rain
since 9 am
mm
Dir
 
Spd
km/h
Gust
km/h
Spd
kts
Gust
kts
23/11:00pm 14.3 12.0 10.3 77 2.1 NNE 13 17 7 9 1015.6 - 0.0
23/10:30pm 11.9 10.1 9.6 86 1.2 NE 9 11 5 6 1016.0 - 0.0
23/10:00pm 12.7 10.8 10.4 86 1.2 ENE 11 13 6 7 1016.2 - 0.0
23/09:30pm 13.0 10.6 10.2 83 1.5 ENE 13 13 7 7 1016.2 - 0.0
23/09:00pm 13.3 11.3 10.3 82 1.6 ENE 11 13 6 7 1016.1 1015.9 0.0
23/08:30pm 14.0 12.1 10.6 80 1.8 E 11 13 6 7 1016.1 - 0.0
23/08:00pm 15.0 13.2 11.0 77 2.1 SE 11 13 6 7 1016.0 - 0.0
23/07:30pm 16.2 13.7 10.9 71 2.9 SSE 15 19 8 10 1016.0 - 0.0
23/07:00pm 17.1 14.6 10.9 67 3.4 ESE 15 19 8 10 1015.4 - 0.0
23/06:30pm 17.9 15.0 11.0 64 3.8 SE 17 22 9 12 1015.3 - 0.0
23/06:00pm 19.9 17.0 11.1 57 4.9 SE 17 22 9 12 1015.2 1014.9 0.0
23/05:30pm 20.3 17.0 11.0 55 5.1 SSE 19 22 10 12 1015.1 - 0.0
23/05:00pm 20.2 17.3 11.1 56 5.0 SSE 17 26 9 14 1015.1 - 0.0
23/04:30pm 20.4 16.9 10.8 54 5.3 SSE 20 26 11 14 1015.1 - 0.0
23/04:00pm 20.8 17.9 10.9 53 5.5 SSE 17 26 9 14 1014.9 - 0.0
23/03:30pm 21.1 17.7 10.6 51 5.8 SSE 19 26 10 14 1015.0 - 0.0
23/03:00pm 20.8 18.2 10.6 52 5.6 SSE 15 22 8 12 1015.3 1015.1 0.0
23/02:30pm 21.3 19.0 10.5 50 5.9 SSE 13 19 7 10 1015.7 - 0.0
23/02:00pm 21.1 18.0 10.3 50 5.9 S 17 24 9 13 1015.9 - 0.0
23/01:30pm 20.7 18.0 10.5 52 5.6 SSE 15 22 8 12 1016.4 - 0.0
23/01:00pm 19.3 16.7 10.6 57 4.7 SE 15 22 8 12 1016.6 - 0.0
23/12:30pm 19.1 16.1 10.6 58 4.6 SE 17 28 9 15 1017.0 - 0.0
23/12:00pm 19.2 16.8 11.3 60 4.4 SE 15 24 8 13 1017.4 1017.2 0.0
23/11:30am 17.9 14.9 10.8 63 3.9 SE 17 24 9 13 1017.7 - 0.0
23/11:00am 16.8 13.5 10.9 68 3.2 SE 19 26 10 14 1017.9 - 0.0
23/10:30am 16.1 13.5 10.6 70 2.9 SE 15 24 8 13 1018.4 - 0.0
23/10:00am 15.1 12.2 10.9 76 2.2 SE 17 22 9 12 1018.6 - 0.0
23/09:30am 15.1 12.6 11.1 77 2.1 E 15 22 8 12 1018.4 - 0.0
23/09:00am 14.2 10.9 11.0 81 1.7 SE 19 24 10 13 1018.6 1018.3 0.0
23/08:30am 13.8 10.4 11.1 84 1.4 ESE 20 26 11 14 1018.7 - 0.0
23/08:00am 13.5 10.0 11.0 85 1.3 SE 20 26 11 14 1018.8 - 0.0
23/07:30am 13.5 10.6 11.0 85 1.3 ESE 17 22 9 12 1018.8 - 0.0
23/07:00am 13.2 9.9 10.9 86 1.2 ESE 19 26 10 14 1018.8 - 0.0
23/06:30am 13.1 9.8 10.8 86 1.2 SE 19 26 10 14 1018.7 - 0.0
23/06:00am 13.2 10.2 10.7 85 1.3 ESE 17 24 9 13 1018.6 1018.3 0.0
23/05:30am 13.2 9.6 10.7 85 1.3 ESE 20 28 11 15 1018.1 - 0.0
23/05:00am 13.2 9.6 10.7 85 1.3 SE 20 24 11 13 1018.2 - 0.0
23/04:30am 13.4 10.1 10.9 85 1.3 SE 19 30 10 16 1018.6 - 0.0
23/04:00am 13.3 10.0 10.8 85 1.3 SE 19 24 10 13 1018.9 - 0.0
23/03:30am 13.4 10.1 10.9 85 1.3 SSE 19 24 10 13 1019.2 - 0.0
23/03:00am 13.7 10.5 11.2 85 1.3 ESE 19 24 10 13 1019.1 1018.8 0.0
23/02:30am 14.0 10.7 11.5 85 1.3 SE 20 24 11 13 1019.1 - 0.0
23/02:00am 14.3 11.2 11.6 84 1.5 SE 19 24 10 13 1019.5 - 0.0
23/01:30am 14.6 11.5 12.1 85 1.4 SE 20 28 11 15 1019.9 - 0.0
23/01:00am 14.6 11.5 12.1 85 1.4 SE 20 26 11 14 1020.3 - 0.0
23/12:30am 14.5 12.5 12.7 89 1.0 SSE 15 22 8 12 1020.7 - 0.0
23/12:00am 14.4 12.0 12.6 89 1.0 SSE 17 22 9 12 1020.7 1020.5 0.0
 
Date/Time
CDT
Temp
°C
App
Temp
°C
Dew
Point
Rel
Hum
%
Delta-T
°C
Wind Press
QNH
hPa
Press
MSL
hPa
Rain
since 9 am
mm
Dir
 
Spd
km/h
Gust
km/h
Spd
kts
Gust
kts
22/11:30pm 14.1 11.3 12.5 90 0.9 SSE 19 24 10 13 1020.8 - 0.0
22/11:00pm 14.1 11.0 12.1 88 1.1 SSE 20 24 11 13 1021.0 - 0.0
22/10:30pm 13.9 11.3 12.1 89 1.0 SSE 17 20 9 11 1021.0 - 0.0
22/10:00pm 13.9 10.9 12.1 89 1.0 S 19 26 10 14 1021.2 - 0.0
22/09:30pm 14.0 11.0 12.0 88 1.1 SSE 19 26 10 14 1021.1 - 0.0
22/09:00pm 14.2 11.6 11.9 86 1.2 SSE 17 24 9 13 1021.0 1020.8 0.0
22/08:30pm 14.4 11.4 12.1 86 1.3 S 19 24 10 13 1020.9 - 0.0
22/08:00pm 14.3 11.3 11.8 85 1.4 S 19 24 10 13 1020.5 - 0.0
22/07:30pm 14.8 11.8 11.9 83 1.6 SSE 19 24 10 13 1020.3 - 0.0
22/07:00pm 15.4 12.4 11.8 79 2.0 SSE 19 26 10 14 1020.2 - 0.0
22/06:30pm 15.9 12.7 11.9 77 2.2 S 20 28 11 15 1019.9 - 0.0
22/06:00pm 17.7 14.4 11.7 68 3.3 S 20 28 11 15 1019.7 1019.4 0.0
22/05:30pm 18.5 15.2 11.6 64 3.8 S 20 30 11 16 1019.5 - 0.0
22/05:00pm 19.3 16.0 11.6 61 4.3 SSE 20 32 11 17 1019.5 - 0.0
22/04:30pm 19.4 15.6 11.2 59 4.5 S 22 28 12 15 1019.5 - 0.0
22/04:00pm 19.7 15.6 11.5 59 4.6 S 24 33 13 18 1019.5 - 0.0
22/03:30pm 20.5 16.5 11.7 57 4.9 S 24 33 13 18 1019.5 - 0.0
22/03:00pm 19.7 15.7 11.7 60 4.4 S 24 32 13 17 1019.5 1019.2 0.0
22/02:30pm 20.9 16.4 11.5 55 5.3 S 26 35 14 19 1019.7 - 0.0
22/02:00pm 21.2 16.5 10.7 51 5.8 S 26 35 14 19 1019.8 - 0.0
22/01:30pm 21.3 17.0 11.9 55 5.3 S 26 33 14 18 1019.9 - 0.0
22/01:00pm 22.6 18.4 11.0 48 6.5 S 24 32 13 17 1019.9 - 0.0
22/12:30pm 22.0 16.9 10.5 48 6.3 S 28 35 15 19 1019.9 - 0.0
22/12:00pm 22.7 17.6 10.5 46 6.7 S 28 37 15 20 1020.0 1019.7 0.0
22/11:30am 21.6 18.0 10.7 50 6.0 S 20 28 11 15 1020.0 - 0.0
22/11:00am 20.7 16.8 10.8 53 5.5 S 22 30 12 16 1020.1 - 0.0
22/10:30am 19.4 15.0 10.4 56 4.9 S 24 30 13 16 1020.2 - 0.0
22/10:00am 19.1 15.9 11.9 63 4.0 S 20 28 11 15 1020.0 - 0.0
22/09:30am 18.8 15.8 12.1 65 3.7 S 19 26 10 14 1020.0 - 0.0
22/09:00am 16.9 14.4 12.2 74 2.6 S 17 22 9 12 1020.0 1019.7 0.0
22/08:30am 15.7 13.4 11.9 78 2.1 SSW 15 20 8 11 1019.8 - 0.0
22/08:00am 15.4 13.8 11.6 78 2.1 SW 11 17 6 9 1019.5 - 0.0
22/07:30am 14.2 13.1 10.8 80 1.8 WSW 7 9 4 5 1019.1 - 0.0
22/07:00am 14.1 12.1 10.1 77 2.1 WSW 11 17 6 9 1018.5 - 0.0
22/06:30am 14.2 12.5 9.8 75 2.3 WSW 9 15 5 8 1018.0 - 0.0
22/06:00am 14.6 12.9 10.0 74 2.4 W 9 13 5 7 1017.9 1017.7 0.0
22/05:30am 15.0 12.9 9.6 70 2.8 W 11 17 6 9 1017.8 - 0.0
22/05:00am 15.1 12.9 9.5 69 2.9 W 11 13 6 7 1017.7 - 0.0
22/04:30am 15.2 13.4 9.3 68 3.1 WSW 9 13 5 7 1017.6 - 0.0
22/04:00am 15.5 13.6 9.0 65 3.4 W 9 11 5 6 1017.5 - 0.0
22/03:30am 15.6 13.8 8.1 61 3.8 W 7 11 4 6 1017.6 - 0.0
22/03:00am 16.4 14.0 7.1 54 4.6 WSW 9 13 5 7 1017.6 1017.4 0.0
22/02:30am 17.3 14.4 6.5 49 5.4 SW 11 17 6 9 1017.7 - 0.0
22/02:00am 17.7 14.3 5.9 46 5.8 SW 13 19 7 10 1017.9 - 0.0
22/01:30am 19.0 15.2 4.0 37 7.2 WSW 13 19 7 10 1017.9 - 0.0
22/01:00am 20.0 15.7 3.3 33 7.9 WSW 15 20 8 11 1017.7 - 0.0
22/12:30am 19.0 16.1 2.8 34 7.6 NW 7 7 4 4 1017.4 - 0.0
22/12:00am 19.7 16.4 2.6 32 8.0 WSW 9 9 5 5 1017.6 1017.4 0.0
 
Date/Time
CDT
Temp
°C
App
Temp
°C
Dew
Point
Rel
Hum
%
Delta-T
°C
Wind Press
QNH
hPa
Press
MSL
hPa
Rain
since 9 am
mm
Dir
 
Spd
km/h
Gust
km/h
Spd
kts
Gust
kts
21/11:30pm 22.2 17.0 2.3 27 9.4 S 19 30 10 16 1017.6 - 0.0
21/11:00pm 22.5 18.2 0.9 24 10.0 NNW 13 15 7 8 1017.0 - 0.0
21/10:30pm 23.5 18.8 0.6 22 10.6 NNW 15 17 8 9 1016.9 - 0.0
21/10:00pm 25.5 21.1 0.2 19 11.8 NW 13 17 7 9 1016.9 - 0.0
21/09:30pm 26.6 21.3 -0.4 17 12.6 NNW 17 20 9 11 1016.7 - 0.0
21/09:00pm 26.3 21.7 -0.7 17 12.5 NNW 13 20 7 11 1016.5 1016.3 0.0
21/08:30pm 27.0 22.4 -0.9 16 12.9 N 13 15 7 8 1016.1 - 0.0
21/08:00pm 27.2 22.6 -0.8 16 13.0 NNE 13 15 7 8 1015.8 - 0.0
21/07:30pm 30.4 27.1 -1.1 13 14.9 NNE 6 11 3 6 1015.5 - 0.0
21/07:00pm 31.5 28.2 -1.3 12 15.6 N 6 11 3 6 1015.7 - 0.0
21/06:30pm 30.9 27.1 -0.7 13 15.1 S 9 19 5 10 1015.6 - 0.0
21/06:00pm 31.4 26.8 -1.4 12 15.6 S 13 19 7 10 1015.7 1015.5 0.0
21/05:30pm 32.6 27.7 -0.5 12 16.1 SW 15 26 8 14 1015.8 - 0.0
21/05:00pm 33.8 28.5 -3.5 9 17.4 WNW 15 22 8 12 1015.7 - 0.0
21/04:30pm 33.9 27.9 -3.4 9 17.4 W 19 26 10 14 1015.7 - 0.0
21/04:00pm 34.2 27.6 -3.2 9 17.6 W 22 30 12 16 1015.6 - 0.0
21/03:30pm 36.1 30.3 -5.1 7 19.0 N 17 30 9 16 1015.7 - 0.0
21/03:00pm 35.8 29.0 -5.3 7 18.9 N 22 32 12 17 1015.8 1015.6 0.0
21/02:30pm 35.8 29.0 -5.3 7 18.9 NW 22 35 12 19 1016.1 - 0.0
21/02:00pm 36.5 29.7 -4.8 7 19.2 NW 22 35 12 19 1016.3 - 0.0
21/01:30pm 36.8 28.5 -4.6 7 19.4 NNW 30 43 16 23 1016.6 - 0.0
21/01:00pm 36.7 27.9 -4.7 7 19.3 N 33 48 18 26 1016.9 - 0.0
21/12:30pm 36.3 28.0 -5.0 7 19.1 NNW 30 46 16 25 1017.2 - 0.0
21/12:08pm 35.9 25.9 -5.2 7 18.9 N 39 57 21 31 1017.5 - 0.0
21/12:00pm 36.1 26.3 -3.3 8 18.7 N 39 54 21 29 1017.4 1017.2 0.0
21/11:30am 35.0 25.8 -4.1 8 18.2 NNW 35 50 19 27 1017.8 - 0.0
21/11:09am 35.3 26.5 -3.9 8 18.4 N 33 52 18 28 1017.8 - 0.0
21/11:00am 34.8 26.0 -4.3 8 18.1 NNW 33 50 18 27 1017.8 - 0.0
21/10:53am 35.2 26.6 -4.0 8 18.3 N 32 50 17 27 1017.9 - 0.0
21/10:30am 32.7 23.5 -4.3 9 16.9 N 35 52 19 28 1017.9 - 0.0
21/10:25am 32.8 23.6 -4.2 9 16.9 N 35 54 19 29 1017.8 - 0.0
21/10:00am 31.1 21.9 -4.1 10 15.9 N 35 50 19 27 1017.7 - 0.0
21/09:30am 29.5 20.7 -4.0 11 15.0 N 33 46 18 25 1017.7 - 0.0
21/09:00am 27.9 19.1 -4.1 12 14.1 N 33 46 18 25 1017.7 1017.5 0.0
21/08:30am 28.1 19.2 -5.1 11 14.4 N 33 48 18 26 1017.6 - 0.0
21/08:00am 26.4 17.6 -4.2 13 13.3 N 33 46 18 25 1017.5 - 0.0
21/07:42am 26.7 17.8 -5.0 12 13.6 N 33 52 18 28 1017.4 - 0.0
21/07:30am 27.2 17.6 -4.6 12 13.8 N 37 48 20 26 1017.2 - 0.0
21/07:00am 25.9 16.3 -4.6 13 13.1 N 37 56 20 30 1017.0 - 0.0
21/06:56am 25.9 16.4 -3.6 14 12.9 N 37 56 20 30 1017.0 - 0.0
21/06:30am 26.2 15.9 -4.4 13 13.2 N 41 57 22 31 1016.6 - 0.0
21/06:00am 26.0 16.9 -3.5 14 12.9 N 35 48 19 26 1016.2 1016.0 0.0
21/05:30am 26.4 17.3 -3.2 14 13.1 N 35 48 19 26 1016.1 - 0.0
21/05:00am 26.3 17.6 -3.3 14 13.1 NNE 33 44 18 24 1016.1 - 0.0
21/04:30am 26.2 17.8 -2.4 15 12.8 NNE 32 44 17 24 1016.0 - 0.0
21/04:00am 26.5 17.6 -2.2 15 12.9 NNE 35 48 19 26 1016.1 - 0.0
21/03:30am 26.2 17.8 -0.8 17 12.5 NNE 33 44 18 24 1016.0 - 0.0
21/03:00am 25.4 17.5 0.8 20 11.6 NNE 32 44 17 24 1016.3 1016.1 0.0
21/02:30am 25.2 17.2 0.7 20 11.5 NNE 32 43 17 23 1016.7 - 0.0
21/02:00am 25.0 17.8 0.5 20 11.5 NNE 28 39 15 21 1017.2 - 0.0
21/01:30am 25.2 18.1 1.3 21 11.4 NNE 28 39 15 21 1017.7 - 0.0
21/01:00am 25.6 18.2 1.7 21 11.5 NE 30 39 16 21 1018.0 - 0.0
21/12:30am 26.1 18.7 2.1 21 11.7 NE 30 43 16 23 1018.2 - 0.0
21/12:00am 25.4 20.0 2.2 22 11.2 NE 20 28 11 15 1018.7 1018.4 0.0
 
Date/Time
CDT
Temp
°C
App
Temp
°C
Dew
Point
Rel
Hum
%
Delta-T
°C
Wind Press
QNH
hPa
Press
MSL
hPa
Rain
since 9 am
mm
Dir
 
Spd
km/h
Gust
km/h
Spd
kts
Gust
kts
20/11:30pm 25.3 19.9 2.7 23 11.0 NE 20 26 11 14 1018.8 - 0.0

Other Formats:

Comma delimited format used in spreadsheet applications
http://www.bom.gov.au/fwo/IDS60801/IDS60801.94662.axf

JavaScript Object Notation format (JSON) in row-major order
http://www.bom.gov.au/fwo/IDS60801/IDS60801.94662.json